sensor_id;sensor_type;location;lat;lon;timestamp;pressure;altitude;pressure_sealevel;temperature;humidity
49178;BME280;35016;55.674;37.468;2023-01-29T00:01:57;99193.31;;;-1.17;73.00
49178;BME280;35016;55.674;37.468;2023-01-29T00:04:25;99200.22;;;-1.23;72.46
49178;BME280;35016;55.674;37.468;2023-01-29T00:06:52;99191.16;;;-1.29;72.68
49178;BME280;35016;55.674;37.468;2023-01-29T00:09:19;99195.41;;;-1.34;72.69
49178;BME280;35016;55.674;37.468;2023-01-29T00:11:45;99200.31;;;-1.38;72.71
49178;BME280;35016;55.674;37.468;2023-01-29T00:14:13;99204.53;;;-1.43;72.95
49178;BME280;35016;55.674;37.468;2023-01-29T00:16:44;99193.25;;;-1.45;72.73
49178;BME280;35016;55.674;37.468;2023-01-29T00:19:10;99190.16;;;-1.49;72.85
49178;BME280;35016;55.674;37.468;2023-01-29T00:21:38;99191.16;;;-1.50;72.79
49178;BME280;35016;55.674;37.468;2023-01-29T00:24:05;99200.78;;;-1.49;72.78
49178;BME280;35016;55.674;37.468;2023-01-29T00:26:32;99192.44;;;-1.46;73.00
49178;BME280;35016;55.674;37.468;2023-01-29T00:28:58;99190.44;;;-1.44;72.77
49178;BME280;35016;55.674;37.468;2023-01-29T00:31:28;99183.72;;;-1.40;72.85
49178;BME280;35016;55.674;37.468;2023-01-29T00:33:56;99179.66;;;-1.36;72.80
49178;BME280;35016;55.674;37.468;2023-01-29T00:36:23;99180.91;;;-1.32;72.94
49178;BME280;35016;55.674;37.468;2023-01-29T00:38:54;99184.22;;;-1.30;72.86
49178;BME280;35016;55.674;37.468;2023-01-29T00:41:27;99178.06;;;-1.30;72.98
49178;BME280;35016;55.674;37.468;2023-01-29T00:44:13;99184.97;;;-1.36;72.77
49178;BME280;35016;55.674;37.468;2023-01-29T00:47:00;99184.09;;;-1.43;72.69
49178;BME280;35016;55.674;37.468;2023-01-29T00:49:27;99177.03;;;-1.50;72.84
49178;BME280;35016;55.674;37.468;2023-01-29T00:51:56;99171.22;;;-1.61;72.71
49178;BME280;35016;55.674;37.468;2023-01-29T00:54:42;99168.69;;;-1.69;72.67
49178;BME280;35016;55.674;37.468;2023-01-29T00:57:09;99180.88;;;-1.74;72.85
49178;BME280;35016;55.674;37.468;2023-01-29T00:59:36;99178.53;;;-1.84;72.64
49178;BME280;35016;55.674;37.468;2023-01-29T01:02:03;99175.81;;;-1.91;72.73
49178;BME280;35016;55.674;37.468;2023-01-29T01:04:49;99177.59;;;-1.98;72.90
49178;BME280;35016;55.674;37.468;2023-01-29T01:07:16;99172.16;;;-2.04;73.14
49178;BME280;35016;55.674;37.468;2023-01-29T01:09:43;99174.75;;;-2.11;72.93
49178;BME280;35016;55.674;37.468;2023-01-29T01:12:30;99167.16;;;-2.14;73.01
49178;BME280;35016;55.674;37.468;2023-01-29T01:14:57;99163.88;;;-2.16;73.18
49178;BME280;35016;55.674;37.468;2023-01-29T01:17:24;99160.19;;;-2.15;73.29
49178;BME280;35016;55.674;37.468;2023-01-29T01:19:51;99166.16;;;-2.13;73.08
49178;BME280;35016;55.674;37.468;2023-01-29T01:22:18;99177.41;;;-2.11;73.38
49178;BME280;35016;55.674;37.468;2023-01-29T01:24:45;99179.88;;;-2.09;73.14
49178;BME280;35016;55.674;37.468;2023-01-29T01:27:12;99164.19;;;-2.04;73.15
49178;BME280;35016;55.674;37.468;2023-01-29T01:29:40;99174.09;;;-1.98;73.17
49178;BME280;35016;55.674;37.468;2023-01-29T01:32:07;99166.56;;;-1.95;73.06
49178;BME280;35016;55.674;37.468;2023-01-29T01:34:34;99171.13;;;-1.89;73.00
49178;BME280;35016;55.674;37.468;2023-01-29T01:37:02;99164.25;;;-1.83;72.99
49178;BME280;35016;55.674;37.468;2023-01-29T01:39:31;99159.81;;;-1.76;73.08
49178;BME280;35016;55.674;37.468;2023-01-29T01:41:58;99167.25;;;-1.71;72.94
49178;BME280;35016;55.674;37.468;2023-01-29T01:47:11;99156.88;;;-1.66;72.65
49178;BME280;35016;55.674;37.468;2023-01-29T01:49:38;99157.50;;;-1.64;72.83
49178;BME280;35016;55.674;37.468;2023-01-29T01:52:05;99148.50;;;-1.63;72.78
49178;BME280;35016;55.674;37.468;2023-01-29T01:54:35;99155.47;;;-1.62;72.68
49178;BME280;35016;55.674;37.468;2023-01-29T01:57:07;99145.03;;;-1.64;72.67
49178;BME280;35016;55.674;37.468;2023-01-29T01:59:45;99147.50;;;-1.62;72.57
49178;BME280;35016;55.674;37.468;2023-01-29T02:02:15;99145.66;;;-1.62;72.47
49178;BME280;35016;55.674;37.468;2023-01-29T02:05:01;99136.88;;;-1.62;72.58
49178;BME280;35016;55.674;37.468;2023-01-29T02:07:47;99134.22;;;-1.62;72.37
49178;BME280;35016;55.674;37.468;2023-01-29T02:10:35;99132.00;;;-1.59;72.61
49178;BME280;35016;55.674;37.468;2023-01-29T02:13:04;99134.44;;;-1.57;72.61
49178;BME280;35016;55.674;37.468;2023-01-29T02:15:32;99130.78;;;-1.56;72.53
49178;BME280;35016;55.674;37.468;2023-01-29T02:18:00;99122.63;;;-1.54;72.28
49178;BME280;35016;55.674;37.468;2023-01-29T02:20:28;99119.56;;;-1.51;72.63
49178;BME280;35016;55.674;37.468;2023-01-29T02:23:14;99123.44;;;-1.54;72.64
49178;BME280;35016;55.674;37.468;2023-01-29T02:28:54;99115.28;;;-1.52;72.57
49178;BME280;35016;55.674;37.468;2023-01-29T02:31:45;99102.59;;;-1.50;72.60
49178;BME280;35016;55.674;37.468;2023-01-29T02:34:28;99098.31;;;-1.51;72.55
49178;BME280;35016;55.674;37.468;2023-01-29T02:37:06;99093.81;;;-1.51;72.79
49178;BME280;35016;55.674;37.468;2023-01-29T02:42:34;99081.13;;;-1.49;72.59
49178;BME280;35016;55.674;37.468;2023-01-29T02:45:21;99091.97;;;-1.50;72.43
49178;BME280;35016;55.674;37.468;2023-01-29T02:47:55;99086.47;;;-1.49;72.56
49178;BME280;35016;55.674;37.468;2023-01-29T02:53:07;99071.09;;;-1.53;72.46
49178;BME280;35016;55.674;37.468;2023-01-29T02:55:43;99074.94;;;-1.56;72.46
49178;BME280;35016;55.674;37.468;2023-01-29T03:00:44;99069.84;;;-1.58;72.55
49178;BME280;35016;55.674;37.468;2023-01-29T03:03:13;99063.69;;;-1.58;72.54
49178;BME280;35016;55.674;37.468;2023-01-29T03:05:49;99059.59;;;-1.61;72.49
49178;BME280;35016;55.674;37.468;2023-01-29T03:08:22;99055.28;;;-1.62;72.71
49178;BME280;35016;55.674;37.468;2023-01-29T03:11:05;99064.72;;;-1.59;72.55
49178;BME280;35016;55.674;37.468;2023-01-29T03:13:37;99045.09;;;-1.58;72.56
49178;BME280;35016;55.674;37.468;2023-01-29T03:18:50;99045.53;;;-1.54;72.60
49178;BME280;35016;55.674;37.468;2023-01-29T03:21:21;99035.13;;;-1.49;72.58
49178;BME280;35016;55.674;37.468;2023-01-29T03:24:10;99023.47;;;-1.48;72.54
49178;BME280;35016;55.674;37.468;2023-01-29T03:27:00;99023.91;;;-1.45;72.52
49178;BME280;35016;55.674;37.468;2023-01-29T03:29:47;99024.09;;;-1.46;72.36
49178;BME280;35016;55.674;37.468;2023-01-29T03:32:51;99015.28;;;-1.47;72.42
49178;BME280;35016;55.674;37.468;2023-01-29T03:35:21;99015.88;;;-1.51;72.43
49178;BME280;35016;55.674;37.468;2023-01-29T03:38:08;99004.22;;;-1.50;72.42
49178;BME280;35016;55.674;37.468;2023-01-29T03:40:58;98998.72;;;-1.49;72.45
49178;BME280;35016;55.674;37.468;2023-01-29T03:48:44;98989.34;;;-1.45;72.36
49178;BME280;35016;55.674;37.468;2023-01-29T03:51:36;98985.69;;;-1.44;72.46
49178;BME280;35016;55.674;37.468;2023-01-29T04:00:05;98971.56;;;-1.44;72.39
49178;BME280;35016;55.674;37.468;2023-01-29T04:05:26;98966.41;;;-1.46;72.61
49178;BME280;35016;55.674;37.468;2023-01-29T04:08:11;98959.66;;;-1.48;72.24
49178;BME280;35016;55.674;37.468;2023-01-29T04:10:40;98960.69;;;-1.49;72.34
49178;BME280;35016;55.674;37.468;2023-01-29T04:13:09;98955.34;;;-1.49;72.38
49178;BME280;35016;55.674;37.468;2023-01-29T04:15:42;98950.25;;;-1.51;72.44
49178;BME280;35016;55.674;37.468;2023-01-29T04:18:12;98950.44;;;-1.52;72.33
49178;BME280;35016;55.674;37.468;2023-01-29T04:21:08;98943.28;;;-1.52;72.41
49178;BME280;35016;55.674;37.468;2023-01-29T04:23:35;98955.56;;;-1.51;72.44
49178;BME280;35016;55.674;37.468;2023-01-29T04:28:42;98959.66;;;-1.48;72.58
49178;BME280;35016;55.674;37.468;2023-01-29T04:31:12;98944.53;;;-1.48;72.44
49178;BME280;35016;55.674;37.468;2023-01-29T04:41:51;98944.13;;;-1.45;72.43
49178;BME280;35016;55.674;37.468;2023-01-29T04:44:27;98941.31;;;-1.43;72.37
49178;BME280;35016;55.674;37.468;2023-01-29T04:47:03;98937.81;;;-1.44;72.46
49178;BME280;35016;55.674;37.468;2023-01-29T04:49:33;98934.34;;;-1.44;72.37
49178;BME280;35016;55.674;37.468;2023-01-29T04:57:18;98938.19;;;-1.47;72.28
49178;BME280;35016;55.674;37.468;2023-01-29T05:00:11;98933.69;;;-1.46;72.58
49178;BME280;35016;55.674;37.468;2023-01-29T05:02:36;98932.06;;;-1.47;72.39
49178;BME280;35016;55.674;37.468;2023-01-29T05:05:04;98930.22;;;-1.47;72.43
49178;BME280;35016;55.674;37.468;2023-01-29T05:07:33;98912.63;;;-1.48;72.27
49178;BME280;35016;55.674;37.468;2023-01-29T05:10:02;98917.94;;;-1.48;72.33
49178;BME280;35016;55.674;37.468;2023-01-29T05:12:30;98916.09;;;-1.47;72.43
49178;BME280;35016;55.674;37.468;2023-01-29T05:14:57;98925.09;;;-1.48;72.50
49178;BME280;35016;55.674;37.468;2023-01-29T05:17:26;98920.78;;;-1.49;72.42
49178;BME280;35016;55.674;37.468;2023-01-29T05:19:55;98923.66;;;-1.51;72.34
49178;BME280;35016;55.674;37.468;2023-01-29T05:22:24;98930.81;;;-1.51;72.50
49178;BME280;35016;55.674;37.468;2023-01-29T05:24:52;98929.78;;;-1.50;72.54
49178;BME280;35016;55.674;37.468;2023-01-29T05:27:20;98926.31;;;-1.51;72.23
49178;BME280;35016;55.674;37.468;2023-01-29T05:30:06;98924.28;;;-1.49;72.39
49178;BME280;35016;55.674;37.468;2023-01-29T05:32:34;98925.09;;;-1.48;72.48
49178;BME280;35016;55.674;37.468;2023-01-29T05:35:01;98929.59;;;-1.49;72.48
49178;BME280;35016;55.674;37.468;2023-01-29T05:37:28;98933.28;;;-1.50;72.22
49178;BME280;35016;55.674;37.468;2023-01-29T05:39:55;98928.16;;;-1.51;72.32
49178;BME280;35016;55.674;37.468;2023-01-29T05:42:22;98935.31;;;-1.52;72.28
49178;BME280;35016;55.674;37.468;2023-01-29T05:44:49;98923.84;;;-1.52;72.29
49178;BME280;35016;55.674;37.468;2023-01-29T05:47:19;98926.72;;;-1.54;72.51
49178;BME280;35016;55.674;37.468;2023-01-29T05:49:46;98933.66;;;-1.53;72.21
49178;BME280;35016;55.674;37.468;2023-01-29T05:52:13;98936.31;;;-1.53;72.27
49178;BME280;35016;55.674;37.468;2023-01-29T05:54:46;98932.84;;;-1.53;72.32
49178;BME280;35016;55.674;37.468;2023-01-29T05:57:13;98939.81;;;-1.52;72.23
49178;BME280;35016;55.674;37.468;2023-01-29T05:59:44;98937.16;;;-1.52;72.30
49178;BME280;35016;55.674;37.468;2023-01-29T06:02:11;98938.16;;;-1.53;72.49
49178;BME280;35016;55.674;37.468;2023-01-29T06:04:38;98929.16;;;-1.52;72.42
49178;BME280;35016;55.674;37.468;2023-01-29T06:07:05;98935.31;;;-1.52;72.31
49178;BME280;35016;55.674;37.468;2023-01-29T06:09:32;98942.66;;;-1.54;72.32
49178;BME280;35016;55.674;37.468;2023-01-29T06:11:58;98942.03;;;-1.56;72.39
49178;BME280;35016;55.674;37.468;2023-01-29T06:14:27;98943.06;;;-1.57;72.34
49178;BME280;35016;55.674;37.468;2023-01-29T06:16:54;98931.59;;;-1.58;72.41
49178;BME280;35016;55.674;37.468;2023-01-29T06:19:21;98927.72;;;-1.55;72.34
49178;BME280;35016;55.674;37.468;2023-01-29T06:21:48;98926.50;;;-1.52;72.11
49178;BME280;35016;55.674;37.468;2023-01-29T06:24:15;98912.00;;;-1.50;72.36
49178;BME280;35016;55.674;37.468;2023-01-29T06:29:34;98902.81;;;-1.47;72.40
49178;BME280;35016;55.674;37.468;2023-01-29T06:32:02;98910.16;;;-1.49;72.40
49178;BME280;35016;55.674;37.468;2023-01-29T06:34:29;98909.34;;;-1.50;72.30
49178;BME280;35016;55.674;37.468;2023-01-29T06:36:55;98902.81;;;-1.47;72.42
49178;BME280;35016;55.674;37.468;2023-01-29T06:39:27;98904.91;;;-1.43;72.29
49178;BME280;35016;55.674;37.468;2023-01-29T06:41:53;98907.38;;;-1.41;72.09
49178;BME280;35016;55.674;37.468;2023-01-29T06:44:21;98912.09;;;-1.37;72.24
49178;BME280;35016;55.674;37.468;2023-01-29T06:46:48;98918.22;;;-1.36;72.36
49178;BME280;35016;55.674;37.468;2023-01-29T06:49:15;98911.50;;;-1.32;72.14
49178;BME280;35016;55.674;37.468;2023-01-29T06:51:42;98910.28;;;-1.30;72.41
49178;BME280;35016;55.674;37.468;2023-01-29T06:54:09;98908.03;;;-1.26;72.42
49178;BME280;35016;55.674;37.468;2023-01-29T06:56:36;98903.34;;;-1.24;72.04
49178;BME280;35016;55.674;37.468;2023-01-29T06:59:03;98895.97;;;-1.22;72.40
49178;BME280;35016;55.674;37.468;2023-01-29T07:01:30;98892.28;;;-1.21;72.22
49178;BME280;35016;55.674;37.468;2023-01-29T07:04:02;98888.63;;;-1.20;72.17
49178;BME280;35016;55.674;37.468;2023-01-29T07:06:29;98876.75;;;-1.17;72.18
49178;BME280;35016;55.674;37.468;2023-01-29T07:08:56;98870.25;;;-1.15;72.27
49178;BME280;35016;55.674;37.468;2023-01-29T07:11:23;98872.50;;;-1.12;72.15
49178;BME280;35016;55.674;37.468;2023-01-29T07:13:50;98871.47;;;-1.11;72.04
49178;BME280;35016;55.674;37.468;2023-01-29T07:16:17;98874.75;;;-1.09;72.27
49178;BME280;35016;55.674;37.468;2023-01-29T07:18:44;98876.19;;;-1.06;72.03
49178;BME280;35016;55.674;37.468;2023-01-29T07:21:12;98881.31;;;-1.05;72.27
49178;BME280;35016;55.674;37.468;2023-01-29T07:23:39;98882.75;;;-1.02;72.25
49178;BME280;35016;55.674;37.468;2023-01-29T07:26:06;98885.63;;;-1.04;72.01
49178;BME280;35016;55.674;37.468;2023-01-29T07:28:42;98880.50;;;-1.05;72.14
49178;BME280;35016;55.674;37.468;2023-01-29T07:31:10;98878.66;;;-1.05;72.13
49178;BME280;35016;55.674;37.468;2023-01-29T07:33:39;98876.63;;;-1.03;72.21
49178;BME280;35016;55.674;37.468;2023-01-29T07:36:06;98870.91;;;-1.00;71.99
49178;BME280;35016;55.674;37.468;2023-01-29T07:38:38;98866.81;;;-0.96;72.24
49178;BME280;35016;55.674;37.468;2023-01-29T07:41:05;98869.69;;;-0.90;72.02
49178;BME280;35016;55.674;37.468;2023-01-29T07:43:33;98868.91;;;-0.84;72.06
49178;BME280;35016;55.674;37.468;2023-01-29T07:46:02;98857.63;;;-0.80;72.11
49178;BME280;35016;55.674;37.468;2023-01-29T07:48:29;98860.31;;;-0.73;72.00
49178;BME280;35016;55.674;37.468;2023-01-29T07:50:57;98858.06;;;-0.70;72.13
49178;BME280;35016;55.674;37.468;2023-01-29T07:53:25;98847.19;;;-0.68;71.95
49178;BME280;35016;55.674;37.468;2023-01-29T07:55:55;98844.75;;;-0.63;71.61
49178;BME280;35016;55.674;37.468;2023-01-29T07:58:23;98839.63;;;-0.58;71.77
49178;BME280;35016;55.674;37.468;2023-01-29T08:00:50;98839.84;;;-0.53;72.00
49178;BME280;35016;55.674;37.468;2023-01-29T08:03:17;98837.81;;;-0.44;71.96
49178;BME280;35016;55.674;37.468;2023-01-29T08:05:45;98847.03;;;-0.40;72.01
49178;BME280;35016;55.674;37.468;2023-01-29T08:08:13;98854.59;;;-0.37;71.90
49178;BME280;35016;55.674;37.468;2023-01-29T08:10:40;98835.75;;;-0.36;72.03
49178;BME280;35016;55.674;37.468;2023-01-29T08:13:09;98843.31;;;-0.33;71.68
49178;BME280;35016;55.674;37.468;2023-01-29T08:15:36;98836.97;;;-0.32;72.04
49178;BME280;35016;55.674;37.468;2023-01-29T08:18:04;98832.69;;;-0.26;71.69
49178;BME280;35016;55.674;37.468;2023-01-29T08:20:32;98828.78;;;-0.23;71.60
49178;BME280;35016;55.674;37.468;2023-01-29T08:23:00;98828.16;;;-0.19;71.55
49178;BME280;35016;55.674;37.468;2023-01-29T08:25:27;98822.22;;;-0.14;71.87
49178;BME280;35016;55.674;37.468;2023-01-29T08:27:58;98822.41;;;-0.09;71.65
49178;BME280;35016;55.674;37.468;2023-01-29T08:30:27;98816.03;;;-0.08;71.85
49178;BME280;35016;55.674;37.468;2023-01-29T08:32:55;98819.13;;;-0.05;71.71
49178;BME280;35016;55.674;37.468;2023-01-29T08:35:22;98819.13;;;-0.05;71.81
49178;BME280;35016;55.674;37.468;2023-01-29T08:37:53;98818.69;;;-0.02;71.66
49178;BME280;35016;55.674;37.468;2023-01-29T08:40:30;98823.00;;;-0.01;71.45
49178;BME280;35016;55.674;37.468;2023-01-29T08:42:58;98826.91;;;-0.03;71.62
49178;BME280;35016;55.674;37.468;2023-01-29T08:45:28;98828.34;;;-0.07;71.71
49178;BME280;35016;55.674;37.468;2023-01-29T08:47:56;98820.56;;;-0.09;71.86
49178;BME280;35016;55.674;37.468;2023-01-29T08:50:23;98812.78;;;-0.10;71.80
49178;BME280;35016;55.674;37.468;2023-01-29T08:53:06;98812.38;;;-0.14;71.73
49178;BME280;35016;55.674;37.468;2023-01-29T08:55:34;98811.75;;;-0.16;71.75
49178;BME280;35016;55.674;37.468;2023-01-29T08:58:05;98814.44;;;-0.16;71.97
49178;BME280;35016;55.674;37.468;2023-01-29T09:00:33;98808.50;;;-0.18;71.57
49178;BME280;35016;55.674;37.468;2023-01-29T09:03:00;98797.84;;;-0.18;71.87
49178;BME280;35016;55.674;37.468;2023-01-29T09:05:28;98799.88;;;-0.20;72.04
49178;BME280;35016;55.674;37.468;2023-01-29T09:07:55;98804.41;;;-0.20;71.49
49178;BME280;35016;55.674;37.468;2023-01-29T09:10:32;98806.03;;;-0.19;71.75
49178;BME280;35016;55.674;37.468;2023-01-29T09:13:00;98795.78;;;-0.22;71.72
49178;BME280;35016;55.674;37.468;2023-01-29T09:15:27;98805.22;;;-0.26;71.61
49178;BME280;35016;55.674;37.468;2023-01-29T09:17:54;98809.72;;;-0.34;71.38
49178;BME280;35016;55.674;37.468;2023-01-29T09:20:23;98823.25;;;-0.42;71.34
49178;BME280;35016;55.674;37.468;2023-01-29T09:22:50;98813.22;;;-0.46;71.63
49178;BME280;35016;55.674;37.468;2023-01-29T09:25:19;98810.16;;;-0.50;71.53
49178;BME280;35016;55.674;37.468;2023-01-29T09:27:46;98793.75;;;-0.47;71.49
49178;BME280;35016;55.674;37.468;2023-01-29T09:30:14;98789.88;;;-0.44;71.45
49178;BME280;35016;55.674;37.468;2023-01-29T09:32:41;98796.63;;;-0.42;71.69
49178;BME280;35016;55.674;37.468;2023-01-29T09:35:18;98787.19;;;-0.38;71.30
49178;BME280;35016;55.674;37.468;2023-01-29T09:37:46;98781.66;;;-0.36;71.20
49178;BME280;35016;55.674;37.468;2023-01-29T09:40:22;98772.63;;;-0.35;71.55
49178;BME280;35016;55.674;37.468;2023-01-29T09:42:54;98770.59;;;-0.33;71.17
49178;BME280;35016;55.674;37.468;2023-01-29T09:45:23;98769.56;;;-0.25;71.61
49178;BME280;35016;55.674;37.468;2023-01-29T09:47:52;98772.44;;;-0.20;70.97
49178;BME280;35016;55.674;37.468;2023-01-29T09:50:35;98780.63;;;-0.22;71.28
49178;BME280;35016;55.674;37.468;2023-01-29T09:58:23;98766.47;;;-0.29;71.27
49178;BME280;35016;55.674;37.468;2023-01-29T10:14:05;98736.16;;;-0.35;70.95
49178;BME280;35016;55.674;37.468;2023-01-29T10:16:48;98744.38;;;-0.36;70.97
49178;BME280;35016;55.674;37.468;2023-01-29T10:19:28;98723.69;;;-0.41;71.16
49178;BME280;35016;55.674;37.468;2023-01-29T10:27:19;98704.03;;;-0.40;70.65
49178;BME280;35016;55.674;37.468;2023-01-29T10:29:51;98686.19;;;-0.39;70.74
49178;BME280;35016;55.674;37.468;2023-01-29T10:32:21;98691.50;;;-0.33;71.00
49178;BME280;35016;55.674;37.468;2023-01-29T10:35:38;98688.63;;;-0.24;70.88
49178;BME280;35016;55.674;37.468;2023-01-29T10:37:57;98674.25;;;-0.17;70.89
49178;BME280;35016;55.674;37.468;2023-01-29T10:43:41;98677.06;;;-0.05;70.74
49178;BME280;35016;55.674;37.468;2023-01-29T10:45:53;98667.44;;;0.01;70.18
49178;BME280;35016;55.674;37.468;2023-01-29T10:48:34;98661.47;;;0.05;70.34
49178;BME280;35016;55.674;37.468;2023-01-29T10:54:12;98654.44;;;0.11;70.32
49178;BME280;35016;55.674;37.468;2023-01-29T10:57:01;98649.72;;;0.13;70.27
49178;BME280;35016;55.674;37.468;2023-01-29T11:02:20;98645.06;;;0.02;70.41
49178;BME280;35016;55.674;37.468;2023-01-29T11:04:48;98635.03;;;-0.03;70.90
49178;BME280;35016;55.674;37.468;2023-01-29T11:07:16;98634.44;;;-0.05;70.61
49178;BME280;35016;55.674;37.468;2023-01-29T11:12:14;98640.41;;;-0.10;70.27
49178;BME280;35016;55.674;37.468;2023-01-29T11:14:47;98638.72;;;-0.04;70.84
49178;BME280;35016;55.674;37.468;2023-01-29T11:17:21;98638.28;;;-0.01;70.73
49178;BME280;35016;55.674;37.468;2023-01-29T11:19:53;98632.16;;;-0.02;70.58
49178;BME280;35016;55.674;37.468;2023-01-29T11:25:17;98633.59;;;-0.06;70.16
49178;BME280;35016;55.674;37.468;2023-01-29T11:27:52;98634.22;;;-0.04;70.20
49178;BME280;35016;55.674;37.468;2023-01-29T11:30:27;98631.13;;;-0.01;70.29
49178;BME280;35016;55.674;37.468;2023-01-29T11:35:26;98624.53;;;0.09;70.46
49178;BME280;35016;55.674;37.468;2023-01-29T11:38:05;98624.50;;;0.15;70.36
49178;BME280;35016;55.674;37.468;2023-01-29T11:40:34;98624.28;;;0.17;70.37
49178;BME280;35016;55.674;37.468;2023-01-29T11:45:39;98618.69;;;0.25;70.05
49178;BME280;35016;55.674;37.468;2023-01-29T11:48:11;98607.84;;;0.20;70.08
49178;BME280;35016;55.674;37.468;2023-01-29T11:50:39;98623.94;;;0.07;70.42
49178;BME280;35016;55.674;37.468;2023-01-29T11:53:16;98621.31;;;-0.07;70.03
49178;BME280;35016;55.674;37.468;2023-01-29T11:55:51;98617.06;;;-0.14;70.21
49178;BME280;35016;55.674;37.468;2023-01-29T11:58:31;98608.88;;;-0.19;70.33
49178;BME280;35016;55.674;37.468;2023-01-29T12:01:00;98609.91;;;-0.20;70.28
49178;BME280;35016;55.674;37.468;2023-01-29T12:03:41;98598.03;;;-0.18;70.70
49178;BME280;35016;55.674;37.468;2023-01-29T12:06:31;98604.94;;;-0.10;70.52
49178;BME280;35016;55.674;37.468;2023-01-29T12:09:00;98600.00;;;0.00;70.67
49178;BME280;35016;55.674;37.468;2023-01-29T12:11:32;98580.69;;;0.05;70.59
49178;BME280;35016;55.674;37.468;2023-01-29T12:14:00;98604.06;;;0.03;70.32
49178;BME280;35016;55.674;37.468;2023-01-29T12:21:49;98598.63;;;-0.16;70.31
49178;BME280;35016;55.674;37.468;2023-01-29T12:27:20;98591.53;;;-0.28;70.50
49178;BME280;35016;55.674;37.468;2023-01-29T12:29:50;98593.97;;;-0.34;70.46
49178;BME280;35016;55.674;37.468;2023-01-29T12:35:52;98597.09;;;-0.43;70.07
49178;BME280;35016;55.674;37.468;2023-01-29T12:37:56;98601.00;;;-0.46;70.09
49178;BME280;35016;55.674;37.468;2023-01-29T12:40:31;98597.09;;;-0.43;70.32
49178;BME280;35016;55.674;37.468;2023-01-29T12:43:03;98594.63;;;-0.38;70.59
49178;BME280;35016;55.674;37.468;2023-01-29T12:45:31;98610.78;;;-0.33;70.29
49178;BME280;35016;55.674;37.468;2023-01-29T12:48:05;98593.81;;;-0.39;69.97
49178;BME280;35016;55.674;37.468;2023-01-29T12:53:36;98596.28;;;-0.44;69.96
49178;BME280;35016;55.674;37.468;2023-01-29T12:56:06;98593.88;;;-0.52;70.02
49178;BME280;35016;55.674;37.468;2023-01-29T12:58:47;98591.03;;;-0.57;70.16
49178;BME280;35016;55.674;37.468;2023-01-29T13:03:47;98595.13;;;-0.68;70.12
49178;BME280;35016;55.674;37.468;2023-01-29T13:06:16;98585.50;;;-0.69;70.26
49178;BME280;35016;55.674;37.468;2023-01-29T13:08:53;98589.59;;;-0.66;70.08
49178;BME280;35016;55.674;37.468;2023-01-29T13:11:25;98586.13;;;-0.67;70.13
49178;BME280;35016;55.674;37.468;2023-01-29T13:13:55;98585.72;;;-0.70;70.04
49178;BME280;35016;55.674;37.468;2023-01-29T13:16:35;98571.81;;;-0.72;70.28
49178;BME280;35016;55.674;37.468;2023-01-29T13:19:49;98570.78;;;-0.71;70.28
49178;BME280;35016;55.674;37.468;2023-01-29T13:25:02;98582.44;;;-0.66;70.23
49178;BME280;35016;55.674;37.468;2023-01-29T13:27:39;98580.38;;;-0.64;69.96
49178;BME280;35016;55.674;37.468;2023-01-29T13:30:26;98568.47;;;-0.61;70.08
49178;BME280;35016;55.674;37.468;2023-01-29T13:33:03;98571.56;;;-0.57;70.27
49178;BME280;35016;55.674;37.468;2023-01-29T13:35:41;98566.84;;;-0.55;69.99
49178;BME280;35016;55.674;37.468;2023-01-29T13:38:21;98559.69;;;-0.55;69.95
49178;BME280;35016;55.674;37.468;2023-01-29T13:40:58;98566.41;;;-0.59;69.75
49178;BME280;35016;55.674;37.468;2023-01-29T13:43:26;98567.06;;;-0.64;69.81
49178;BME280;35016;55.674;37.468;2023-01-29T13:45:54;98568.09;;;-0.65;69.72
49178;BME280;35016;55.674;37.468;2023-01-29T13:51:33;98565.66;;;-0.73;70.08
49178;BME280;35016;55.674;37.468;2023-01-29T13:54:15;98561.59;;;-0.75;70.25
49178;BME280;35016;55.674;37.468;2023-01-29T13:57:04;98555.03;;;-0.73;69.95
49178;BME280;35016;55.674;37.468;2023-01-29T13:59:48;98557.25;;;-0.70;70.15
49178;BME280;35016;55.674;37.468;2023-01-29T14:02:26;98555.81;;;-0.66;69.95
49178;BME280;35016;55.674;37.468;2023-01-29T14:12:46;98536.53;;;-0.61;69.85
49178;BME280;35016;55.674;37.468;2023-01-29T14:18:04;98528.97;;;-0.64;69.92
49178;BME280;35016;55.674;37.468;2023-01-29T14:20:36;98536.13;;;-0.65;70.27
49178;BME280;35016;55.674;37.468;2023-01-29T14:25:59;98533.28;;;-0.63;70.23
49178;BME280;35016;55.674;37.468;2023-01-29T14:28:50;98525.09;;;-0.68;70.37
49178;BME280;35016;55.674;37.468;2023-01-29T14:33:59;98529.81;;;-0.70;70.16
49178;BME280;35016;55.674;37.468;2023-01-29T14:42:13;98529.81;;;-0.70;70.03
49178;BME280;35016;55.674;37.468;2023-01-29T14:44:54;98534.34;;;-0.71;70.34
49178;BME280;35016;55.674;37.468;2023-01-29T14:55:59;98523.91;;;-0.72;70.30
49178;BME280;35016;55.674;37.468;2023-01-29T15:00:56;98513.69;;;-0.75;70.12
49178;BME280;35016;55.674;37.468;2023-01-29T15:03:28;98523.28;;;-0.74;70.26
49178;BME280;35016;55.674;37.468;2023-01-29T15:06:03;98524.94;;;-0.73;70.16
49178;BME280;35016;55.674;37.468;2023-01-29T15:11:11;98524.31;;;-0.75;70.17
49178;BME280;35016;55.674;37.468;2023-01-29T15:16:44;98511.00;;;-0.75;70.36
49178;BME280;35016;55.674;37.468;2023-01-29T15:19:20;98512.66;;;-0.74;70.04
49178;BME280;35016;55.674;37.468;2023-01-29T15:22:08;98514.50;;;-0.75;70.24
49178;BME280;35016;55.674;37.468;2023-01-29T15:24:38;98512.03;;;-0.76;70.27
49178;BME280;35016;55.674;37.468;2023-01-29T15:27:17;98509.59;;;-0.78;70.29
49178;BME280;35016;55.674;37.468;2023-01-29T15:29:54;98505.91;;;-0.77;70.33
49178;BME280;35016;55.674;37.468;2023-01-29T15:32:31;98514.31;;;-0.80;70.10
49178;BME280;35016;55.674;37.468;2023-01-29T15:35:40;98521.28;;;-0.85;70.20
49178;BME280;35016;55.674;37.468;2023-01-29T15:39:25;98524.78;;;-0.91;70.41
49178;BME280;35016;55.674;37.468;2023-01-29T15:42:11;98521.72;;;-0.95;70.26
49178;BME280;35016;55.674;37.468;2023-01-29T15:44:47;98521.94;;;-0.97;70.33
49178;BME280;35016;55.674;37.468;2023-01-29T15:47:29;98524.16;;;-0.94;70.26
49178;BME280;35016;55.674;37.468;2023-01-29T15:52:53;98526.03;;;-1.01;70.23
49178;BME280;35016;55.674;37.468;2023-01-29T15:55:33;98507.84;;;-1.04;70.37